Bearcat — WV8240 — position and weather

sailwx.info

Track history (hours):
 
Tides and Currents Weather Stations Pressure Air Temp Water Temp Dewpoint Dewpoint Depression Visibility Wind Speed Wind Dir Waves Ship Positions

Bearcat

Owner: WESTAR MARINE SERVICE, SAN FRANCISCO, CA. More information available from US FCC via Universal Licensing System and Coast Guard Vessel Documentation Center.

Last reported at 2017-Dec-04 10:30 UTC. Time now 2017-Dec-11 17:15 UTC.
Position N 47°46' W 122°27'.

; draft 2.7 m.

Type: Towing. MMSI: 366969780.

Date/timePositionNaut miles runAvg speedWind from/ knotsBaromVisibWave heightAir tempDewpointWater temp
2017-Dec-04 10:30N 47°46' W 122°27'4 8.5
2017-Dec-04 10:00N 47°50' W 122°28'4 8.3
2017-Dec-04 09:30N 47°54' W 122°30'5 9.1
2017-Dec-04 09:00N 47°58' W 122°35'23 8.2
2017-Dec-04 06:12N 48°19' W 122°47'2 9.0
2017-Dec-04 05:55N 48°21' W 122°46'410.2
2017-Dec-04 05:30N 48°26' W 122°45'611.8
2017-Dec-04 05:00N 48°31' W 122°42'611.2
2017-Dec-04 04:30N 48°36' W 122°39'3 6.9
2017-Dec-04 04:00N 48°36' W 122°34'1 1.1
2017-Dec-04 03:30N 48°36' W 122°33'0 0.0
2017-Dec-04 03:00N 48°36' W 122°33'0 0.1
2017-Dec-04 02:30N 48°36' W 122°33'0 0.0
2017-Dec-04 02:00N 48°36' W 122°33'0 0.0
2017-Dec-04 01:25N 48°36' W 122°33'0 0.0
2017-Dec-04 00:55N 48°36' W 122°33'0 0.1
2017-Dec-04 00:30N 48°36' W 122°33'0 0.0
2017-Dec-04 00:00N 48°36' W 122°33'0 0.1
2017-Dec-03 23:30N 48°36' W 122°33'0 0.0
2017-Dec-03 23:00N 48°36' W 122°33'0 0.0
2017-Dec-03 22:30N 48°36' W 122°33'0 0.1
2017-Dec-03 22:00N 48°36' W 122°32'0 0.9
2017-Dec-03 21:30N 48°37' W 122°33'1 2.5
2017-Dec-03 21:00N 48°38' W 122°34'1 2.2
2017-Dec-03 20:30N 48°38' W 122°35'3 6.7
2017-Dec-03 20:00N 48°36' W 122°39'3 6.3
2017-Dec-03 19:30N 48°32' W 122°40'2 3.6
2017-Dec-03 19:00N 48°31' W 122°42'2 3.3
2017-Dec-03 18:30N 48°30' W 122°43'2 3.6
2017-Dec-03 18:00N 48°28' W 122°44'2 3.3
2017-Dec-03 17:28N 48°26' W 122°44'2 4.4
2017-Dec-03 17:00N 48°24' W 122°44'3 5.1
2017-Dec-03 16:22N 48°21' W 122°45'22 6.0
2017-Dec-03 12:47N 48°00' W 122°36'2 6.8
2017-Dec-03 12:28N 47°58' W 122°34'4 8.1
2017-Dec-03 12:00N 47°56' W 122°30'3 6.8
2017-Dec-03 11:30N 47°53' W 122°28'3 6.6
2017-Dec-03 11:00N 47°50' W 122°27'3 7.0
2017-Dec-03 10:30N 47°47' W 122°25'4 7.0
2017-Dec-03 10:00N 47°43' W 122°26'4 7.1
2017-Dec-03 09:30N 47°40' W 122°27'3 6.7
2017-Dec-03 09:00N 47°37' W 122°24'2 4.7
2017-Dec-03 08:30N 47°35' W 122°21'0 0.5
2017-Dec-03 08:00N 47°35' W 122°21'0 0.5
2017-Dec-03 07:30N 47°35' W 122°22'1 2.4
2017-Dec-03 07:00N 47°34' W 122°21'0 0.0
2017-Dec-03 06:30N 47°34' W 122°21'0 0.0
2017-Dec-03 06:00N 47°34' W 122°21'0 0.0
2017-Dec-03 05:30N 47°34' W 122°21'0 0.0
2017-Dec-03 05:00N 47°34' W 122°21'0 0.0
2017-Dec-03 04:30N 47°34' W 122°21'0 0.0
2017-Dec-03 04:00N 47°34' W 122°21'0 0.0
2017-Dec-03 03:28N 47°34' W 122°21'0 0.0
2017-Dec-03 00:37N 47°34' W 122°21'0 0.0
2017-Dec-03 00:27N 47°34' W 122°21'0 0.0
2017-Dec-02 23:59N 47°34' W 122°21'0 0.0
2017-Dec-02 23:26N 47°34' W 122°21'0 0.0
2017-Dec-01 14:25N 47°34' W 122°21'1 1.8
2017-Dec-01 14:00N 47°35' W 122°22'1 2.5
2017-Dec-01 13:30N 47°36' W 122°22'1 2.1
2017-Dec-01 13:00N 47°36' W 122°23'4 7.4
2017-Dec-01 12:30N 47°39' W 122°28'2 4.0
2017-Dec-01 12:00N 47°41' W 122°28'3 6.6
2017-Dec-01 11:30N 47°44' W 122°27'3 6.6
2017-Dec-01 11:00N 47°47' W 122°28'4 7.5
2017-Dec-01 10:30N 47°51' W 122°29'4 7.9
2017-Dec-01 10:00N 47°55' W 122°30'24 8.8
2017-Dec-01 07:19N 48°11' W 122°55'3 8.8
2017-Dec-01 06:58N 48°12' W 123°00'4 9.4
2017-Dec-01 06:29N 48°12' W 123°07'4 8.7
2017-Dec-01 06:00N 48°10' W 123°13'5 8.9
2017-Dec-01 05:30N 48°09' W 123°19'4 8.1
2017-Dec-01 05:00N 48°08' W 123°25'1 2.5
2017-Dec-01 04:30N 48°08' W 123°27'0 0.0
2017-Dec-01 04:00N 48°08' W 123°27'0 0.0
2017-Dec-01 03:30N 48°08' W 123°27'0 0.1
2017-Dec-01 03:00N 48°08' W 123°27'0 0.0
2017-Dec-01 02:30N 48°08' W 123°27'0 0.1
2017-Dec-01 02:00N 48°08' W 123°27'0 0.0
2017-Dec-01 01:30N 48°08' W 123°27'0 0.0
2017-Dec-01 01:00N 48°08' W 123°27'0 0.8
2017-Dec-01 00:28N 48°08' W 123°27'0 0.8
2017-Dec-01 00:00N 48°08' W 123°27'1 1.2
2017-Nov-30 23:30N 48°08' W 123°26'0 0.7
2017-Nov-30 23:00N 48°08' W 123°26'0 0.4
2017-Nov-30 22:30N 48°08' W 123°26'0 0.3
2017-Nov-30 22:00N 48°08' W 123°26'0 0.1
2017-Nov-30 21:30N 48°08' W 123°26'0 0.2
2017-Nov-30 21:00N 48°08' W 123°26'1 1.0
2017-Nov-30 20:30N 48°08' W 123°27'0 0.6
2017-Nov-30 20:00N 48°08' W 123°27'0 1.0
2017-Nov-30 19:30N 48°08' W 123°26'2 4.0
2017-Nov-30 19:00N 48°08' W 123°23'2 3.2
2017-Nov-30 18:30N 48°08' W 123°21'2 3.8
2017-Nov-30 18:00N 48°09' W 123°18'2 3.5
2017-Nov-30 17:30N 48°10' W 123°15'2 3.9
2017-Nov-30 16:58N 48°10' W 123°13'2 4.4
2017-Nov-30 16:29N 48°12' W 123°10'2 3.5
2017-Nov-30 15:57N 48°13' W 123°08'6 3.7
2017-Nov-30 14:28N 48°12' W 122°59'20 4.9
2017-Nov-30 10:24N 48°00' W 122°36'2 5.2
2017-Nov-30 09:59N 47°58' W 122°34'3 5.4
2017-Nov-30 09:30N 47°57' W 122°31'2 4.5
2017-Nov-30 09:00N 47°55' W 122°29'3 5.2
2017-Nov-30 08:30N 47°53' W 122°28'2 4.7
2017-Nov-30 08:00N 47°51' W 122°27'2 4.8
2017-Nov-30 07:30N 47°48' W 122°26'2 4.9
2017-Nov-30 07:00N 47°46' W 122°25'3 5.0
2017-Nov-30 06:30N 47°43' W 122°26'2 4.6
2017-Nov-30 06:00N 47°41' W 122°27'2 4.8
2017-Nov-30 05:30N 47°39' W 122°27'2 4.8
2017-Nov-30 05:00N 47°37' W 122°24'2 5.0
2017-Nov-30 04:30N 47°36' W 122°21'0 0.5
2017-Nov-30 04:00N 47°35' W 122°21'0 0.1
2017-Nov-30 03:30N 47°35' W 122°21'0 0.0
2017-Nov-30 03:00N 47°35' W 122°21'1 2.3
2017-Nov-30 02:30N 47°34' W 122°21'0 0.3
2017-Nov-30 01:58N 47°34' W 122°21'0 0.0
2017-Nov-30 01:27N 47°34' W 122°21'0 0.0
2017-Nov-30 01:00N 47°34' W 122°21'0 0.0
2017-Nov-29 14:12N 47°34' W 122°21'  
Track history (hours):
 
Tides and Currents Weather Stations Pressure Air Temp Water Temp Dewpoint Dewpoint Depression Visibility Wind Speed Wind Dir Waves Ship Positions

Bearcat

Owner: WESTAR MARINE SERVICE, SAN FRANCISCO, CA. More information available from US FCC via Universal Licensing System and Coast Guard Vessel Documentation Center.

Last reported at 2017-Dec-04 10:30 UTC. Time now 2017-Dec-11 17:15 UTC.
Position N 47°46' W 122°27'.

; draft 2.7 m.

Type: Towing. MMSI: 366969780.

Date/timePositionNaut miles runAvg speedWind from/ knotsBaromVisibWave heightAir tempDewpointWater temp
2017-Dec-04 10:30N 47°46' W 122°27'4 8.5
2017-Dec-04 10:00N 47°50' W 122°28'4 8.3
2017-Dec-04 09:30N 47°54' W 122°30'5 9.1
2017-Dec-04 09:00N 47°58' W 122°35'23 8.2
2017-Dec-04 06:12N 48°19' W 122°47'2 9.0
2017-Dec-04 05:55N 48°21' W 122°46'410.2
2017-Dec-04 05:30N 48°26' W 122°45'611.8
2017-Dec-04 05:00N 48°31' W 122°42'611.2
2017-Dec-04 04:30N 48°36' W 122°39'3 6.9
2017-Dec-04 04:00N 48°36' W 122°34'1 1.1
2017-Dec-04 03:30N 48°36' W 122°33'0 0.0
2017-Dec-04 03:00N 48°36' W 122°33'0 0.1
2017-Dec-04 02:30N 48°36' W 122°33'0 0.0
2017-Dec-04 02:00N 48°36' W 122°33'0 0.0
2017-Dec-04 01:25N 48°36' W 122°33'0 0.0
2017-Dec-04 00:55N 48°36' W 122°33'0 0.1
2017-Dec-04 00:30N 48°36' W 122°33'0 0.0
2017-Dec-04 00:00N 48°36' W 122°33'0 0.1
2017-Dec-03 23:30N 48°36' W 122°33'0 0.0
2017-Dec-03 23:00N 48°36' W 122°33'0 0.0
2017-Dec-03 22:30N 48°36' W 122°33'0 0.1
2017-Dec-03 22:00N 48°36' W 122°32'0 0.9
2017-Dec-03 21:30N 48°37' W 122°33'1 2.5
2017-Dec-03 21:00N 48°38' W 122°34'1 2.2
2017-Dec-03 20:30N 48°38' W 122°35'3 6.7
2017-Dec-03 20:00N 48°36' W 122°39'3 6.3
2017-Dec-03 19:30N 48°32' W 122°40'2 3.6
2017-Dec-03 19:00N 48°31' W 122°42'2 3.3
2017-Dec-03 18:30N 48°30' W 122°43'2 3.6
2017-Dec-03 18:00N 48°28' W 122°44'2 3.3
2017-Dec-03 17:28N 48°26' W 122°44'2 4.4
2017-Dec-03 17:00N 48°24' W 122°44'3 5.1
2017-Dec-03 16:22N 48°21' W 122°45'22 6.0
2017-Dec-03 12:47N 48°00' W 122°36'2 6.8
2017-Dec-03 12:28N 47°58' W 122°34'4 8.1
2017-Dec-03 12:00N 47°56' W 122°30'3 6.8
2017-Dec-03 11:30N 47°53' W 122°28'3 6.6
2017-Dec-03 11:00N 47°50' W 122°27'3 7.0
2017-Dec-03 10:30N 47°47' W 122°25'4 7.0
2017-Dec-03 10:00N 47°43' W 122°26'4 7.1
2017-Dec-03 09:30N 47°40' W 122°27'3 6.7
2017-Dec-03 09:00N 47°37' W 122°24'2 4.7
2017-Dec-03 08:30N 47°35' W 122°21'0 0.5
2017-Dec-03 08:00N 47°35' W 122°21'0 0.5
2017-Dec-03 07:30N 47°35' W 122°22'1 2.4
2017-Dec-03 07:00N 47°34' W 122°21'0 0.0
2017-Dec-03 06:30N 47°34' W 122°21'0 0.0
2017-Dec-03 06:00N 47°34' W 122°21'0 0.0
2017-Dec-03 05:30N 47°34' W 122°21'0 0.0
2017-Dec-03 05:00N 47°34' W 122°21'0 0.0
2017-Dec-03 04:30N 47°34' W 122°21'0 0.0
2017-Dec-03 04:00N 47°34' W 122°21'0 0.0
2017-Dec-03 03:28N 47°34' W 122°21'0 0.0
2017-Dec-03 00:37N 47°34' W 122°21'0 0.0
2017-Dec-03 00:27N 47°34' W 122°21'0 0.0
2017-Dec-02 23:59N 47°34' W 122°21'0 0.0
2017-Dec-02 23:26N 47°34' W 122°21'0 0.0
2017-Dec-01 14:25N 47°34' W 122°21'1 1.8
2017-Dec-01 14:00N 47°35' W 122°22'1 2.5
2017-Dec-01 13:30N 47°36' W 122°22'1 2.1
2017-Dec-01 13:00N 47°36' W 122°23'4 7.4
2017-Dec-01 12:30N 47°39' W 122°28'2 4.0
2017-Dec-01 12:00N 47°41' W 122°28'3 6.6
2017-Dec-01 11:30N 47°44' W 122°27'3 6.6
2017-Dec-01 11:00N 47°47' W 122°28'4 7.5
2017-Dec-01 10:30N 47°51' W 122°29'4 7.9
2017-Dec-01 10:00N 47°55' W 122°30'24 8.8
2017-Dec-01 07:19N 48°11' W 122°55'3 8.8
2017-Dec-01 06:58N 48°12' W 123°00'4 9.4
2017-Dec-01 06:29N 48°12' W 123°07'4 8.7
2017-Dec-01 06:00N 48°10' W 123°13'5 8.9
2017-Dec-01 05:30N 48°09' W 123°19'4 8.1
2017-Dec-01 05:00N 48°08' W 123°25'1 2.5
2017-Dec-01 04:30N 48°08' W 123°27'0 0.0
2017-Dec-01 04:00N 48°08' W 123°27'0 0.0
2017-Dec-01 03:30N 48°08' W 123°27'0 0.1
2017-Dec-01 03:00N 48°08' W 123°27'0 0.0
2017-Dec-01 02:30N 48°08' W 123°27'0 0.1
2017-Dec-01 02:00N 48°08' W 123°27'0 0.0
2017-Dec-01 01:30N 48°08' W 123°27'0 0.0
2017-Dec-01 01:00N 48°08' W 123°27'0 0.8
2017-Dec-01 00:28N 48°08' W 123°27'0 0.8
2017-Dec-01 00:00N 48°08' W 123°27'1 1.2
2017-Nov-30 23:30N 48°08' W 123°26'0 0.7
2017-Nov-30 23:00N 48°08' W 123°26'0 0.4
2017-Nov-30 22:30N 48°08' W 123°26'0 0.3
2017-Nov-30 22:00N 48°08' W 123°26'0 0.1
2017-Nov-30 21:30N 48°08' W 123°26'0 0.2
2017-Nov-30 21:00N 48°08' W 123°26'1 1.0
2017-Nov-30 20:30N 48°08' W 123°27'0 0.6
2017-Nov-30 20:00N 48°08' W 123°27'0 1.0
2017-Nov-30 19:30N 48°08' W 123°26'2 4.0
2017-Nov-30 19:00N 48°08' W 123°23'2 3.2
2017-Nov-30 18:30N 48°08' W 123°21'2 3.8
2017-Nov-30 18:00N 48°09' W 123°18'2 3.5
2017-Nov-30 17:30N 48°10' W 123°15'2 3.9
2017-Nov-30 16:58N 48°10' W 123°13'2 4.4
2017-Nov-30 16:29N 48°12' W 123°10'2 3.5
2017-Nov-30 15:57N 48°13' W 123°08'6 3.7
2017-Nov-30 14:28N 48°12' W 122°59'20 4.9
2017-Nov-30 10:24N 48°00' W 122°36'2 5.2
2017-Nov-30 09:59N 47°58' W 122°34'3 5.4
2017-Nov-30 09:30N 47°57' W 122°31'2 4.5
2017-Nov-30 09:00N 47°55' W 122°29'3 5.2
2017-Nov-30 08:30N 47°53' W 122°28'2 4.7
2017-Nov-30 08:00N 47°51' W 122°27'2 4.8
2017-Nov-30 07:30N 47°48' W 122°26'2 4.9
2017-Nov-30 07:00N 47°46' W 122°25'3 5.0
2017-Nov-30 06:30N 47°43' W 122°26'2 4.6
2017-Nov-30 06:00N 47°41' W 122°27'2 4.8
2017-Nov-30 05:30N 47°39' W 122°27'2 4.8
2017-Nov-30 05:00N 47°37' W 122°24'2 5.0
2017-Nov-30 04:30N 47°36' W 122°21'0 0.5
2017-Nov-30 04:00N 47°35' W 122°21'0 0.1
2017-Nov-30 03:30N 47°35' W 122°21'0 0.0
2017-Nov-30 03:00N 47°35' W 122°21'1 2.3
2017-Nov-30 02:30N 47°34' W 122°21'0 0.3
2017-Nov-30 01:58N 47°34' W 122°21'0 0.0
2017-Nov-30 01:27N 47°34' W 122°21'0 0.0
2017-Nov-30 01:00N 47°34' W 122°21'0 0.0
2017-Nov-29 14:12N 47°34' W 122°21'  

Dump ship's entire track history